Time;durP1;ratioP1;P1;durP2;ratioP2;P2;SDS_P1;SDS_P2;PMS_P1;PMS_P2;Temp;Humidity;BMP_temperature;BMP_pressure;BME280_temperature;BME280_humidity;BME280_pressure;Samples;Min_cycle;Max_cycle;Signal;HPM_P1;HPM_P2
2023/09/11 00:00:18;;;;;;;12.02;10.82;;;;;;;;;;5041601;28;20227;-77
2023/09/11 00:02:46;;;;;;;12.07;10.88;;;;;;;;;;5050425;28;20245;-77
2023/09/11 00:05:13;;;;;;;12.00;10.90;;;;;;;;;;5047850;28;20215;-77
2023/09/11 00:07:40;;;;;;;12.20;10.98;;;;;;;;;;5041646;28;20198;-76
2023/09/11 00:10:08;;;;;;;11.75;10.55;;;;;;;;;;5039904;28;20207;-77
2023/09/11 00:12:35;;;;;;;11.43;10.38;;;;;;;;;;5046503;28;20284;-76
2023/09/11 00:15:02;;;;;;;11.07;9.98;;;;;;;;;;5045572;28;20240;-75
2023/09/11 00:17:30;;;;;;;11.93;10.82;;;;;;;;;;5038775;28;20207;-75
2023/09/11 00:19:57;;;;;;;12.38;10.50;;;;;;;;;;5045493;28;20222;-76
2023/09/11 00:22:24;;;;;;;11.23;10.23;;;;;;;;;;5051231;28;20352;-76
2023/09/11 00:24:51;;;;;;;11.85;10.85;;;;;;;;;;5051129;28;20206;-76
2023/09/11 00:27:18;;;;;;;12.15;11.00;;;;;;;;;;5038016;28;20195;-77
2023/09/11 00:29:46;;;;;;;11.70;10.70;;;;;;;;;;5044522;28;20207;-77
2023/09/11 00:32:13;;;;;;;11.50;10.40;;;;;;;;;;5043289;28;20241;-76
2023/09/11 00:34:40;;;;;;;11.90;10.70;;;;;;;;;;5051252;28;20206;-75
2023/09/11 00:37:07;;;;;;;12.02;10.85;;;;;;;;;;5042349;28;20524;-77
2023/09/11 00:39:34;;;;;;;11.65;10.45;;;;;;;;;;5042992;28;20213;-76
2023/09/11 00:42:02;;;;;;;11.50;10.40;;;;;;;;;;5047783;28;20202;-77
2023/09/11 00:44:29;;;;;;;11.55;10.27;;;;;;;;;;5065790;28;20229;-76
2023/09/11 00:46:57;;;;;;;10.35;9.32;;;;;;;;;;5037113;28;20210;-76
2023/09/11 00:49:24;;;;;;;11.85;10.57;;;;;;;;;;5045583;28;20206;-76
2023/09/11 00:51:52;;;;;;;11.80;10.65;;;;;;;;;;5045052;28;20202;-76
2023/09/11 00:54:20;;;;;;;11.23;10.23;;;;;;;;;;5042664;28;20697;-77
2023/09/11 00:56:47;;;;;;;11.23;10.23;;;;;;;;;;5041435;28;20203;-78
2023/09/11 00:59:14;;;;;;;10.57;9.68;;;;;;;;;;5051544;28;20206;-75
2023/09/11 01:01:42;;;;;;;11.95;10.63;;;;;;;;;;5043892;28;20238;-75
2023/09/11 01:04:10;;;;;;;16.17;10.00;;;;;;;;;;5045018;28;20224;-77
2023/09/11 01:06:37;;;;;;;11.50;10.50;;;;;;;;;;5044795;28;20207;-75
2023/09/11 01:09:05;;;;;;;12.25;11.05;;;;;;;;;;5038602;28;20256;-76
2023/09/11 01:11:32;;;;;;;11.80;10.70;;;;;;;;;;5039988;28;20210;-76
2023/09/11 01:13:59;;;;;;;12.15;11.05;;;;;;;;;;5050242;28;20230;-77
2023/09/11 01:16:26;;;;;;;12.63;11.52;;;;;;;;;;5051197;28;20232;-76
2023/09/11 01:18:59;;;;;;;12.38;11.05;;;;;;;;;;5038896;28;20202;-76
2023/09/11 01:21:38;;;;;;;11.50;10.32;;;;;;;;;;5041451;28;20710;-75
2023/09/11 01:24:27;;;;;;;12.48;11.20;;;;;;;;;;5048954;28;20217;-77
2023/09/11 01:27:23;;;;;;;12.13;10.75;;;;;;;;;;5048537;28;20757;-76
2023/09/11 01:29:52;;;;;;;11.85;10.73;;;;;;;;;;5039294;28;20260;-76
2023/09/11 01:32:21;;;;;;;12.13;10.85;;;;;;;;;;5040318;28;20244;-78
2023/09/11 01:34:48;;;;;;;11.77;10.68;;;;;;;;;;5050457;28;20206;-77
2023/09/11 01:37:15;;;;;;;12.13;11.02;;;;;;;;;;5046871;28;20683;-77
2023/09/11 01:39:43;;;;;;;12.52;11.43;;;;;;;;;;5044904;28;20630;-77
2023/09/11 01:42:11;;;;;;;12.10;11.00;;;;;;;;;;5041784;28;20827;-75
2023/09/11 01:44:47;;;;;;;11.82;9.90;;;;;;;;;;5037098;28;20584;-75
2023/09/11 01:47:17;;;;;;;10.75;9.80;;;;;;;;;;5036375;28;20285;-78
2023/09/11 01:49:45;;;;;;;11.45;10.20;;;;;;;;;;5043775;28;20206;-76
2023/09/11 01:52:12;;;;;;;11.45;10.30;;;;;;;;;;5050941;28;20194;-76
2023/09/11 01:54:39;;;;;;;10.75;9.73;;;;;;;;;;5049851;28;20260;-77
2023/09/11 01:57:07;;;;;;;11.13;9.85;;;;;;;;;;5044018;28;20670;-76
2023/09/11 01:59:34;;;;;;;11.80;10.63;;;;;;;;;;5037224;28;20626;-76
2023/09/11 02:02:01;;;;;;;11.45;10.35;;;;;;;;;;5043244;28;20233;-77
2023/09/11 02:04:29;;;;;;;11.52;10.52;;;;;;;;;;5045514;28;20610;-76
2023/09/11 02:06:56;;;;;;;10.90;9.98;;;;;;;;;;5044533;28;20254;-77
2023/09/11 02:09:23;;;;;;;12.57;11.38;;;;;;;;;;5047131;28;20574;-76
2023/09/11 02:11:50;;;;;;;12.13;11.10;;;;;;;;;;5049870;28;20260;-77
2023/09/11 02:14:18;;;;;;;11.48;10.45;;;;;;;;;;5040472;28;20231;-76
2023/09/11 02:16:45;;;;;;;11.98;10.70;;;;;;;;;;5043480;28;20215;-77
2023/09/11 02:19:12;;;;;;;12.25;10.85;;;;;;;;;;5039725;28;20218;-76
2023/09/11 02:21:40;;;;;;;11.82;10.75;;;;;;;;;;5042926;28;20231;-76
2023/09/11 02:24:07;;;;;;;12.45;10.93;;;;;;;;;;5041771;28;20571;-76
2023/09/11 02:26:34;;;;;;;11.88;10.73;;;;;;;;;;5039291;28;20294;-75
2023/09/11 02:29:01;;;;;;;13.23;11.73;;;;;;;;;;5038745;28;20202;-76
2023/09/11 02:31:29;;;;;;;12.13;11.02;;;;;;;;;;5037845;28;20465;-76
2023/09/11 02:33:56;;;;;;;11.88;10.75;;;;;;;;;;5044138;28;20321;-76
2023/09/11 02:36:23;;;;;;;11.90;10.70;;;;;;;;;;5049099;28;20349;-77
2023/09/11 02:38:50;;;;;;;13.38;12.10;;;;;;;;;;5047324;28;20202;-76
2023/09/11 02:41:17;;;;;;;13.05;11.85;;;;;;;;;;5049469;28;20589;-77
2023/09/11 02:43:45;;;;;;;14.88;13.43;;;;;;;;;;5049965;28;20225;-75
2023/09/11 02:46:12;;;;;;;16.05;13.63;;;;;;;;;;5053076;28;20194;-77
2023/09/11 02:48:46;;;;;;;15.05;13.63;;;;;;;;;;5052988;28;20255;-76
2023/09/11 02:51:14;;;;;;;16.17;14.50;;;;;;;;;;5048090;28;20670;-77
2023/09/11 02:53:41;;;;;;;14.88;13.50;;;;;;;;;;5048376;28;20219;-77
2023/09/11 02:56:09;;;;;;;15.55;14.15;;;;;;;;;;5049896;28;20206;-76
2023/09/11 02:58:36;;;;;;;17.20;15.40;;;;;;;;;;5051134;28;20202;-77
2023/09/11 03:01:04;;;;;;;15.90;14.27;;;;;;;;;;5048010;28;20311;-74
2023/09/11 03:03:31;;;;;;;17.02;13.93;;;;;;;;;;5042597;28;20269;-76
2023/09/11 03:06:00;;;;;;;12.10;10.90;;;;;;;;;;5043515;28;20226;-76
2023/09/11 03:08:28;;;;;;;12.23;11.02;;;;;;;;;;5048394;28;20198;-77
2023/09/11 03:11:03;;;;;;;15.40;13.27;;;;;;;;;;5048002;28;20210;-77
2023/09/11 03:13:30;;;;;;;15.27;13.77;;;;;;;;;;5049612;28;20280;-76
2023/09/11 03:16:06;;;;;;;16.10;14.50;;;;;;;;;;5055474;28;20559;-76
2023/09/11 03:18:34;;;;;;;15.85;14.45;;;;;;;;;;5068049;28;20206;-78
2023/09/11 03:21:02;;;;;;;15.63;14.07;;;;;;;;;;5043652;28;20309;-76
2023/09/11 03:23:30;;;;;;;14.70;13.30;;;;;;;;;;5043872;28;20589;-76
2023/09/11 03:25:58;;;;;;;15.73;14.23;;;;;;;;;;5049652;28;20559;-76
2023/09/11 03:28:27;;;;;;;14.90;13.55;;;;;;;;;;5040033;28;20207;-77
2023/09/11 03:30:54;;;;;;;15.88;14.38;;;;;;;;;;5039430;28;20199;-75
2023/09/11 03:33:21;;;;;;;15.25;13.68;;;;;;;;;;5045388;28;20221;-76
2023/09/11 03:35:49;;;;;;;15.68;14.07;;;;;;;;;;5051995;28;20205;-77
2023/09/11 03:38:20;;;;;;;14.45;12.95;;;;;;;;;;5046246;28;20217;-76
2023/09/11 03:40:47;;;;;;;15.00;13.50;;;;;;;;;;5051508;23;20223;-76
2023/09/11 03:43:15;;;;;;;14.63;13.15;;;;;;;;;;5004636;28;20215;-76
2023/09/11 03:45:42;;;;;;;14.35;12.95;;;;;;;;;;4995732;28;20208;-76
2023/09/11 03:48:09;;;;;;;14.68;13.27;;;;;;;;;;5000716;28;20196;-77
2023/09/11 03:50:37;;;;;;;14.57;13.27;;;;;;;;;;5001699;28;20204;-76
2023/09/11 03:53:04;;;;;;;17.45;13.93;;;;;;;;;;5006636;28;20214;-77
2023/09/11 03:55:32;;;;;;;14.60;13.15;;;;;;;;;;4997511;28;20208;-76
2023/09/11 03:57:59;;;;;;;15.07;13.63;;;;;;;;;;5006560;28;20208;-77
2023/09/11 04:00:27;;;;;;;15.00;13.50;;;;;;;;;;4995061;28;20208;-77
2023/09/11 04:02:54;;;;;;;14.93;13.15;;;;;;;;;;5000389;28;20199;-75
2023/09/11 04:05:21;;;;;;;14.45;13.05;;;;;;;;;;5003971;28;20208;-76
2023/09/11 04:07:49;;;;;;;16.70;14.50;;;;;;;;;;5003353;28;20204;-77
2023/09/11 04:10:17;;;;;;;14.88;13.32;;;;;;;;;;4994929;28;20227;-76
2023/09/11 04:12:44;;;;;;;16.83;15.20;;;;;;;;;;5003772;28;20224;-76
2023/09/11 04:15:11;;;;;;;16.00;14.40;;;;;;;;;;4999455;28;20342;-77
2023/09/11 04:17:38;;;;;;;17.67;15.45;;;;;;;;;;4998285;28;20200;-76
2023/09/11 04:20:09;;;;;;;17.92;15.82;;;;;;;;;;5000019;28;20197;-77
2023/09/11 04:22:36;;;;;;;18.15;15.82;;;;;;;;;;4996699;28;20228;-77
2023/09/11 04:25:04;;;;;;;18.38;15.88;;;;;;;;;;5001681;28;20217;-77
2023/09/11 04:27:31;;;;;;;17.42;15.52;;;;;;;;;;4996302;28;20203;-76
2023/09/11 04:29:59;;;;;;;18.85;15.07;;;;;;;;;;5004512;28;20206;-77
2023/09/11 04:32:27;;;;;;;16.40;14.65;;;;;;;;;;5004232;28;20227;-77
2023/09/11 04:34:54;;;;;;;17.13;14.20;;;;;;;;;;5002168;28;20805;-77
2023/09/11 04:37:21;;;;;;;16.65;14.20;;;;;;;;;;4999934;28;20204;-77
2023/09/11 04:39:49;;;;;;;16.02;14.43;;;;;;;;;;5002804;28;20216;-77
2023/09/11 04:42:16;;;;;;;15.02;13.52;;;;;;;;;;4998382;28;20248;-78
2023/09/11 04:44:45;;;;;;;15.65;14.15;;;;;;;;;;5002215;28;20667;-77
2023/09/11 04:47:12;;;;;;;15.48;13.98;;;;;;;;;;5006954;28;20292;-76
2023/09/11 04:49:40;;;;;;;16.02;14.30;;;;;;;;;;5001750;28;20615;-76
2023/09/11 04:52:07;;;;;;;14.88;13.23;;;;;;;;;;4998348;28;20219;-77
2023/09/11 04:54:34;;;;;;;13.77;12.43;;;;;;;;;;5000841;28;20204;-77
2023/09/11 04:57:01;;;;;;;14.05;12.75;;;;;;;;;;4996123;28;20211;-77
2023/09/11 04:59:29;;;;;;;13.88;12.50;;;;;;;;;;5010717;28;20207;-76
2023/09/11 05:01:56;;;;;;;13.40;12.20;;;;;;;;;;4997639;28;20262;-77
2023/09/11 05:04:23;;;;;;;14.60;13.20;;;;;;;;;;5005007;28;20249;-77
2023/09/11 05:06:51;;;;;;;14.35;12.95;;;;;;;;;;5002165;28;20204;-76
2023/09/11 05:09:18;;;;;;;13.88;12.45;;;;;;;;;;5006725;28;20215;-77
2023/09/11 05:11:46;;;;;;;14.57;12.90;;;;;;;;;;4992761;28;20219;-77
2023/09/11 05:14:13;;;;;;;14.05;12.65;;;;;;;;;;5010050;28;20222;-77
2023/09/11 05:16:40;;;;;;;13.60;12.23;;;;;;;;;;5009671;28;20218;-77
2023/09/11 05:19:08;;;;;;;13.85;12.45;;;;;;;;;;5004566;28;20205;-76
2023/09/11 05:21:36;;;;;;;14.75;11.90;;;;;;;;;;5009905;28;20684;-75
2023/09/11 05:24:04;;;;;;;12.80;11.60;;;;;;;;;;5004666;28;20204;-75
2023/09/11 05:26:32;;;;;;;13.10;11.90;;;;;;;;;;5000647;28;20199;-76
2023/09/11 05:29:00;;;;;;;13.45;11.88;;;;;;;;;;5005670;28;20199;-76
2023/09/11 05:31:27;;;;;;;13.25;10.93;;;;;;;;;;4999650;28;20227;-76
2023/09/11 05:33:54;;;;;;;13.02;11.63;;;;;;;;;;5005281;28;20208;-75
2023/09/11 05:36:22;;;;;;;12.45;11.07;;;;;;;;;;4995789;28;20216;-75
2023/09/11 05:38:49;;;;;;;12.50;11.20;;;;;;;;;;4997220;28;20247;-73
2023/09/11 05:41:20;;;;;;;12.27;11.07;;;;;;;;;;4993890;28;20240;-75
2023/09/11 05:43:47;;;;;;;13.95;12.07;;;;;;;;;;4999407;28;20255;-75
2023/09/11 05:46:15;;;;;;;13.57;11.48;;;;;;;;;;4997481;28;20594;-75
2023/09/11 05:48:42;;;;;;;14.23;11.60;;;;;;;;;;5007654;28;20235;-75
2023/09/11 05:51:10;;;;;;;16.48;11.00;;;;;;;;;;5002953;28;20231;-75
2023/09/11 05:53:37;;;;;;;12.07;10.82;;;;;;;;;;5006075;28;20739;-75
2023/09/11 05:56:04;;;;;;;11.52;9.88;;;;;;;;;;4999765;28;20210;-74
2023/09/11 05:58:32;;;;;;;12.23;11.13;;;;;;;;;;4997724;28;20207;-76
2023/09/11 06:00:59;;;;;;;13.10;11.80;;;;;;;;;;5005734;28;20226;-76
2023/09/11 06:03:26;;;;;;;12.60;11.40;;;;;;;;;;4994779;28;20223;-75
2023/09/11 06:05:54;;;;;;;14.40;12.88;;;;;;;;;;4999461;28;20257;-76
2023/09/11 06:08:21;;;;;;;13.75;12.35;;;;;;;;;;5006323;28;20698;-75
2023/09/11 06:10:49;;;;;;;14.13;12.40;;;;;;;;;;5006856;28;20228;-74
2023/09/11 06:13:16;;;;;;;14.50;12.35;;;;;;;;;;5004956;28;20226;-76
2023/09/11 06:15:43;;;;;;;12.93;11.75;;;;;;;;;;5011742;28;20242;-74
2023/09/11 06:18:10;;;;;;;13.68;12.30;;;;;;;;;;5004895;28;20208;-74
2023/09/11 06:20:38;;;;;;;13.05;11.32;;;;;;;;;;4996281;28;20204;-73
2023/09/11 06:23:06;;;;;;;11.70;10.48;;;;;;;;;;5004541;28;20745;-75
2023/09/11 06:25:34;;;;;;;12.77;11.52;;;;;;;;;;5004334;28;20200;-75
2023/09/11 06:28:01;;;;;;;11.18;9.93;;;;;;;;;;5008146;28;20678;-75
2023/09/11 06:30:29;;;;;;;13.23;10.57;;;;;;;;;;4985273;28;20661;-76
2023/09/11 06:32:56;;;;;;;11.70;10.45;;;;;;;;;;4991986;28;20844;-75
2023/09/11 06:35:23;;;;;;;11.32;10.23;;;;;;;;;;4985987;28;20207;-75
2023/09/11 06:37:51;;;;;;;10.45;9.32;;;;;;;;;;4993075;28;20216;-75
2023/09/11 06:40:18;;;;;;;9.95;8.90;;;;;;;;;;5004032;28;20216;-74
2023/09/11 06:42:45;;;;;;;11.18;10.07;;;;;;;;;;4998936;28;20708;-75
2023/09/11 06:45:12;;;;;;;11.10;9.50;;;;;;;;;;5007534;28;20212;-76
2023/09/11 06:47:40;;;;;;;11.45;9.57;;;;;;;;;;5007669;28;20211;-72
2023/09/11 06:50:07;;;;;;;10.02;8.90;;;;;;;;;;4996278;28;20200;-72
2023/09/11 06:52:38;;;;;;;10.05;8.63;;;;;;;;;;5000961;28;20258;-73
2023/09/11 06:55:07;;;;;;;10.20;8.93;;;;;;;;;;4990202;28;20222;-71
2023/09/11 06:57:34;;;;;;;9.68;8.68;;;;;;;;;;5004018;28;20211;-73
2023/09/11 07:00:08;;;;;;;10.65;8.52;;;;;;;;;;4995501;28;20211;-72
2023/09/11 07:02:35;;;;;;;8.73;7.80;;;;;;;;;;5002016;28;20296;-73
2023/09/11 07:05:04;;;;;;;10.45;8.13;;;;;;;;;;5007286;28;20207;-72
2023/09/11 07:07:31;;;;;;;8.32;7.53;;;;;;;;;;4996093;28;20284;-73
2023/09/11 07:09:59;;;;;;;11.48;8.48;;;;;;;;;;5000260;28;20556;-73
2023/09/11 07:12:26;;;;;;;8.40;7.53;;;;;;;;;;4999811;28;20231;-74
2023/09/11 07:14:54;;;;;;;8.65;7.80;;;;;;;;;;5011743;28;20234;-72
2023/09/11 07:17:21;;;;;;;9.63;7.60;;;;;;;;;;5004808;28;20239;-71
2023/09/11 07:19:48;;;;;;;8.32;7.43;;;;;;;;;;5001696;28;20270;-72
2023/09/11 07:22:15;;;;;;;8.73;7.72;;;;;;;;;;5006817;28;20231;-73
2023/09/11 07:24:43;;;;;;;8.00;7.35;;;;;;;;;;4989882;28;20351;-73
2023/09/11 07:27:10;;;;;;;8.90;8.00;;;;;;;;;;5008394;28;20631;-73
2023/09/11 07:29:38;;;;;;;8.82;7.90;;;;;;;;;;5009179;28;20572;-73
2023/09/11 07:32:05;;;;;;;9.00;7.35;;;;;;;;;;5011681;28;20278;-73
2023/09/11 07:34:33;;;;;;;8.30;7.50;;;;;;;;;;4998809;28;20660;-73
2023/09/11 07:37:00;;;;;;;8.30;7.53;;;;;;;;;;4999448;28;20208;-71
2023/09/11 07:39:27;;;;;;;8.68;7.80;;;;;;;;;;4997709;28;20208;-72
2023/09/11 07:41:55;;;;;;;9.32;7.32;;;;;;;;;;4980319;28;20240;-73
2023/09/11 07:44:24;;;;;;;8.80;7.32;;;;;;;;;;4983486;28;20203;-71
2023/09/11 07:46:51;;;;;;;10.45;7.93;;;;;;;;;;5004055;28;20196;-72
2023/09/11 07:49:19;;;;;;;8.13;7.32;;;;;;;;;;5004030;28;20214;-72
2023/09/11 07:51:46;;;;;;;8.98;8.07;;;;;;;;;;5006616;28;20227;-70
2023/09/11 07:54:13;;;;;;;8.82;7.47;;;;;;;;;;5003342;28;20211;-73
2023/09/11 07:56:40;;;;;;;6.97;6.28;;;;;;;;;;5011126;28;20207;-73
2023/09/11 07:59:08;;;;;;;9.07;7.18;;;;;;;;;;4998190;28;20936;-73
2023/09/11 08:01:37;;;;;;;7.30;6.57;;;;;;;;;;5007719;28;20266;-73
2023/09/11 08:04:05;;;;;;;7.57;6.50;;;;;;;;;;5004867;28;20250;-73
2023/09/11 08:06:33;;;;;;;6.97;6.35;;;;;;;;;;5005487;28;20654;-73
2023/09/11 08:09:03;;;;;;;7.45;6.60;;;;;;;;;;5004247;28;20586;-72
2023/09/11 08:11:34;;;;;;;7.07;6.20;;;;;;;;;;5004492;28;20227;-72
2023/09/11 08:14:02;;;;;;;9.27;6.38;;;;;;;;;;4998248;28;20200;-72
2023/09/11 08:16:30;;;;;;;8.45;7.00;;;;;;;;;;4999004;28;20205;-72
2023/09/11 08:18:57;;;;;;;10.45;6.95;;;;;;;;;;5001579;28;20569;-73
2023/09/11 08:21:24;;;;;;;7.88;6.78;;;;;;;;;;5004099;28;20230;-71
2023/09/11 08:23:52;;;;;;;9.18;6.90;;;;;;;;;;5004718;28;20215;-72
2023/09/11 08:26:19;;;;;;;7.55;6.50;;;;;;;;;;5005730;28;20306;-73
2023/09/11 08:28:47;;;;;;;6.38;5.82;;;;;;;;;;5007986;28;20208;-71
2023/09/11 08:31:14;;;;;;;8.73;6.05;;;;;;;;;;5001815;28;20242;-72
2023/09/11 08:33:41;;;;;;;8.73;6.43;;;;;;;;;;4996538;28;20584;-72
2023/09/11 08:36:22;;;;;;;8.35;6.50;;;;;;;;;;4995365;28;20661;-72
2023/09/11 08:38:49;;;;;;;8.73;5.90;;;;;;;;;;5008832;28;20274;-74
2023/09/11 08:41:19;;;;;;;7.55;5.10;;;;;;;;;;5007013;28;20240;-71
2023/09/11 08:43:46;;;;;;;8.32;5.63;;;;;;;;;;4995913;28;20306;-74
2023/09/11 08:46:17;;;;;;;5.78;4.80;;;;;;;;;;5000941;28;20203;-72
2023/09/11 08:48:47;;;;;;;5.95;5.40;;;;;;;;;;5004570;28;20676;-72
2023/09/11 08:51:37;;;;;;;5.90;4.75;;;;;;;;;;4993906;28;20232;-71
2023/09/11 08:54:09;;;;;;;7.05;5.20;;;;;;;;;;4988364;28;20207;-72
2023/09/11 08:56:37;;;;;;;6.97;4.53;;;;;;;;;;5003531;28;20868;-72
2023/09/11 08:59:05;;;;;;;8.82;5.50;;;;;;;;;;5002703;28;20597;-73
2023/09/11 09:01:33;;;;;;;8.68;5.68;;;;;;;;;;5001132;28;20231;-73
2023/09/11 09:04:01;;;;;;;10.75;4.90;;;;;;;;;;5032784;23;20716;-74
2023/09/11 09:06:29;;;;;;;8.55;4.97;;;;;;;;;;5017542;28;20290;-75
2023/09/11 09:08:57;;;;;;;6.78;4.72;;;;;;;;;;5015397;28;20619;-74
2023/09/11 09:11:25;;;;;;;5.63;4.63;;;;;;;;;;5014869;28;20594;-74
2023/09/11 09:13:53;;;;;;;5.18;4.68;;;;;;;;;;5007240;28;20208;-75
2023/09/11 09:16:20;;;;;;;9.27;5.00;;;;;;;;;;5004881;28;20203;-75
2023/09/11 09:18:51;;;;;;;5.45;5.00;;;;;;;;;;5000882;28;20302;-74
2023/09/11 09:21:19;;;;;;;4.93;4.53;;;;;;;;;;4993156;28;20242;-75
2023/09/11 09:23:46;;;;;;;5.60;4.70;;;;;;;;;;4990945;28;20215;-74
2023/09/11 09:26:13;;;;;;;6.80;5.00;;;;;;;;;;5009389;28;20711;-77
2023/09/11 09:28:44;;;;;;;4.82;4.35;;;;;;;;;;5007959;28;20196;-75
2023/09/11 09:31:12;;;;;;;5.55;4.63;;;;;;;;;;4991716;28;20219;-74
2023/09/11 09:33:40;;;;;;;8.23;5.07;;;;;;;;;;5005987;28;20251;-76
2023/09/11 09:36:08;;;;;;;5.97;5.38;;;;;;;;;;4992271;28;20443;-75
2023/09/11 09:38:35;;;;;;;5.43;4.93;;;;;;;;;;5009093;28;20209;-74
2023/09/11 09:41:12;;;;;;;7.22;5.47;;;;;;;;;;4987223;28;20258;-74
2023/09/11 09:43:40;;;;;;;6.30;5.70;;;;;;;;;;5010562;28;20222;-75
2023/09/11 09:46:20;;;;;;;7.25;5.38;;;;;;;;;;5011911;28;20210;-75
2023/09/11 09:48:48;;;;;;;9.75;5.20;;;;;;;;;;5008119;28;20200;-74
2023/09/11 09:51:16;;;;;;;8.75;5.75;;;;;;;;;;4996696;28;20713;-74
2023/09/11 09:53:46;;;;;;;6.30;5.20;;;;;;;;;;5009932;28;20217;-74
2023/09/11 09:56:14;;;;;;;5.63;5.05;;;;;;;;;;5010579;28;20285;-74
2023/09/11 09:58:44;;;;;;;6.57;4.78;;;;;;;;;;5014224;28;20574;-74
2023/09/11 10:01:11;;;;;;;5.03;4.55;;;;;;;;;;4994596;28;20324;-76
2023/09/11 10:03:43;;;;;;;8.75;5.38;;;;;;;;;;5007884;28;20728;-73
2023/09/11 10:06:15;;;;;;;6.90;5.43;;;;;;;;;;4996649;28;20587;-73
2023/09/11 10:08:42;;;;;;;7.20;6.05;;;;;;;;;;5004058;28;20204;-76
2023/09/11 10:11:27;;;;;;;6.88;5.43;;;;;;;;;;5006362;28;20219;-75
2023/09/11 10:13:58;;;;;;;6.30;5.70;;;;;;;;;;5012087;28;20205;-75
2023/09/11 10:16:26;;;;;;;6.65;5.40;;;;;;;;;;5007899;28;20215;-75
2023/09/11 10:18:54;;;;;;;7.88;5.07;;;;;;;;;;5011889;28;20211;-75
2023/09/11 10:21:22;;;;;;;7.00;5.50;;;;;;;;;;5011066;28;20236;-75
2023/09/11 10:23:49;;;;;;;7.10;5.82;;;;;;;;;;5013452;28;20227;-75
2023/09/11 10:26:25;;;;;;;6.15;4.72;;;;;;;;;;5011171;28;20265;-77
2023/09/11 10:28:54;;;;;;;6.43;5.38;;;;;;;;;;5010350;28;20206;-76
2023/09/11 10:31:24;;;;;;;8.50;5.70;;;;;;;;;;5009346;28;20832;-75
2023/09/11 10:33:55;;;;;;;16.27;5.93;;;;;;;;;;4994168;28;20204;-76
2023/09/11 10:36:23;;;;;;;6.68;5.28;;;;;;;;;;5019098;28;20714;-76
2023/09/11 10:38:53;;;;;;;9.05;5.82;;;;;;;;;;5011469;28;20203;-76
2023/09/11 10:41:20;;;;;;;6.63;5.40;;;;;;;;;;5011369;28;20227;-74
2023/09/11 10:43:48;;;;;;;8.20;5.50;;;;;;;;;;5010358;28;20228;-75
2023/09/11 10:46:17;;;;;;;5.25;4.80;;;;;;;;;;4993716;28;20210;-75
2023/09/11 10:48:44;;;;;;;5.30;4.80;;;;;;;;;;4993472;28;20199;-76
2023/09/11 10:51:13;;;;;;;6.30;4.82;;;;;;;;;;4996678;28;20302;-74
2023/09/11 10:53:41;;;;;;;5.53;5.03;;;;;;;;;;5008851;28;20208;-75
2023/09/11 10:56:09;;;;;;;11.75;5.43;;;;;;;;;;5008864;28;20258;-77
2023/09/11 10:58:37;;;;;;;5.78;5.18;;;;;;;;;;4994359;28;20223;-76
2023/09/11 11:01:05;;;;;;;8.40;5.25;;;;;;;;;;5007642;28;20223;-76
2023/09/11 11:03:34;;;;;;;6.25;5.05;;;;;;;;;;5008970;28;20349;-77
2023/09/11 11:06:02;;;;;;;5.68;5.18;;;;;;;;;;5009598;28;20220;-75
2023/09/11 11:08:33;;;;;;;6.95;4.90;;;;;;;;;;5009701;28;20266;-74
2023/09/11 11:11:01;;;;;;;7.63;5.10;;;;;;;;;;4993173;28;20220;-75
2023/09/11 11:13:29;;;;;;;5.20;4.70;;;;;;;;;;5009612;28;20211;-76
2023/09/11 11:16:15;;;;;;;9.48;5.50;;;;;;;;;;4994302;28;20254;-74
2023/09/11 11:18:44;;;;;;;7.43;4.70;;;;;;;;;;5012390;28;20211;-76
2023/09/11 11:21:11;;;;;;;5.97;4.82;;;;;;;;;;5011823;28;20255;-75
2023/09/11 11:24:00;;;;;;;6.35;5.03;;;;;;;;;;5014448;28;20588;-76
2023/09/11 11:26:30;;;;;;;7.18;5.50;;;;;;;;;;4998506;28;20245;-77
2023/09/11 11:28:59;;;;;;;7.28;4.53;;;;;;;;;;5004400;28;20211;-74
2023/09/11 11:31:28;;;;;;;5.35;4.85;;;;;;;;;;4996312;28;20239;-75
2023/09/11 11:33:57;;;;;;;5.82;5.00;;;;;;;;;;5013050;28;20211;-75
2023/09/11 11:36:26;;;;;;;5.22;4.72;;;;;;;;;;5010981;28;20212;-75
2023/09/11 11:38:54;;;;;;;5.20;4.70;;;;;;;;;;5010391;28;20700;-75
2023/09/11 11:41:22;;;;;;;5.88;5.03;;;;;;;;;;5011923;28;20716;-74
2023/09/11 11:43:50;;;;;;;6.55;5.70;;;;;;;;;;5010872;28;20243;-77
2023/09/11 11:46:25;;;;;;;5.18;4.63;;;;;;;;;;5010845;28;20203;-76
2023/09/11 11:48:53;;;;;;;5.63;5.03;;;;;;;;;;5011879;28;20207;-75
2023/09/11 11:51:32;;;;;;;6.40;5.00;;;;;;;;;;4991852;28;20227;-76
2023/09/11 11:54:00;;;;;;;5.93;5.05;;;;;;;;;;5003736;28;20553;-75
2023/09/11 11:56:27;;;;;;;5.47;4.90;;;;;;;;;;5008494;28;20265;-75
2023/09/11 11:58:55;;;;;;;6.97;5.15;;;;;;;;;;5003516;28;20290;-76
2023/09/11 12:01:23;;;;;;;5.20;4.70;;;;;;;;;;5009326;28;20227;-76
2023/09/11 12:03:51;;;;;;;5.80;5.10;;;;;;;;;;5004049;28;20223;-74
2023/09/11 12:06:20;;;;;;;7.70;5.03;;;;;;;;;;4993290;28;20226;-75
2023/09/11 12:08:49;;;;;;;9.70;5.22;;;;;;;;;;5010959;28;20203;-74
2023/09/11 12:11:16;;;;;;;6.10;4.95;;;;;;;;;;5014343;28;20281;-74
2023/09/11 12:13:43;;;;;;;6.22;4.95;;;;;;;;;;5010996;28;20217;-75
2023/09/11 12:16:17;;;;;;;5.72;5.22;;;;;;;;;;4995257;28;20203;-75
2023/09/11 12:18:46;;;;;;;5.60;5.10;;;;;;;;;;5009237;28;20204;-76
2023/09/11 12:21:13;;;;;;;6.75;5.10;;;;;;;;;;4992570;28;20310;-77
2023/09/11 12:23:40;;;;;;;7.35;5.50;;;;;;;;;;5010559;28;20289;-76
2023/09/11 12:26:08;;;;;;;5.93;5.05;;;;;;;;;;5010615;28;20199;-76
2023/09/11 12:28:36;;;;;;;5.60;4.85;;;;;;;;;;4992956;28;20571;-75
2023/09/11 12:31:03;;;;;;;5.68;4.60;;;;;;;;;;5010471;28;20467;-76
2023/09/11 12:33:34;;;;;;;6.53;4.85;;;;;;;;;;5009662;28;20215;-76
2023/09/11 12:36:02;;;;;;;6.15;4.95;;;;;;;;;;5010021;28;20291;-75
2023/09/11 12:38:30;;;;;;;5.30;4.78;;;;;;;;;;5008294;28;20215;-76
2023/09/11 12:40:57;;;;;;;8.07;4.65;;;;;;;;;;5018309;28;20234;-76
2023/09/11 12:43:26;;;;;;;7.43;5.28;;;;;;;;;;5009449;28;20231;-76
2023/09/11 12:45:53;;;;;;;6.45;4.57;;;;;;;;;;5010100;28;20514;-75
2023/09/11 12:48:22;;;;;;;5.75;5.25;;;;;;;;;;5010386;28;20234;-75
2023/09/11 12:50:49;;;;;;;7.72;4.82;;;;;;;;;;4990362;28;20258;-75
2023/09/11 12:53:17;;;;;;;9.82;4.80;;;;;;;;;;5007494;28;20214;-74
2023/09/11 12:55:47;;;;;;;6.15;4.78;;;;;;;;;;5008952;28;20215;-77
2023/09/11 12:58:16;;;;;;;5.85;4.80;;;;;;;;;;4992431;28;20653;-76
2023/09/11 13:00:48;;;;;;;5.70;4.60;;;;;;;;;;5008944;28;20656;-75
2023/09/11 13:03:16;;;;;;;7.07;4.43;;;;;;;;;;5009275;28;20459;-76
2023/09/11 13:05:44;;;;;;;5.80;4.50;;;;;;;;;;4991483;28;20211;-75
2023/09/11 13:08:12;;;;;;;9.30;4.65;;;;;;;;;;5008767;28;20600;-76
2023/09/11 13:10:40;;;;;;;24.83;17.05;;;;;;;;;;5006411;28;20580;-76
2023/09/11 13:13:07;;;;;;;5.40;4.90;;;;;;;;;;5007938;28;20207;-75
2023/09/11 13:15:44;;;;;;;6.13;4.32;;;;;;;;;;4992553;28;20649;-74
2023/09/11 13:18:11;;;;;;;8.02;4.60;;;;;;;;;;5002862;28;20676;-75
2023/09/11 13:20:40;;;;;;;5.30;4.78;;;;;;;;;;5007461;28;20214;-76
2023/09/11 13:23:07;;;;;;;6.20;4.47;;;;;;;;;;5008868;28;20285;-75
2023/09/11 13:25:36;;;;;;;6.90;4.70;;;;;;;;;;5005642;28;20223;-74
2023/09/11 13:28:03;;;;;;;6.00;4.68;;;;;;;;;;5008468;28;20207;-74
2023/09/11 13:30:33;;;;;;;5.22;4.72;;;;;;;;;;5007723;28;20265;-75
2023/09/11 13:33:00;;;;;;;5.28;4.55;;;;;;;;;;5004493;28;20718;-75
2023/09/11 13:35:27;;;;;;;6.47;4.72;;;;;;;;;;5004740;28;20231;-75
2023/09/11 13:37:55;;;;;;;6.20;4.30;;;;;;;;;;5000068;28;20195;-74
2023/09/11 13:40:22;;;;;;;7.30;4.70;;;;;;;;;;5008664;28;20211;-76
2023/09/11 13:42:51;;;;;;;7.15;6.13;;;;;;;;;;4993405;28;20505;-75
2023/09/11 13:45:18;;;;;;;6.75;4.35;;;;;;;;;;5004750;28;20207;-75
2023/09/11 13:47:45;;;;;;;8.50;5.00;;;;;;;;;;4990590;28;20205;-75
2023/09/11 13:50:13;;;;;;;7.50;4.47;;;;;;;;;;5008731;28;20491;-76
2023/09/11 13:52:40;;;;;;;7.97;4.40;;;;;;;;;;5007565;28;20289;-74
2023/09/11 13:55:08;;;;;;;7.13;4.28;;;;;;;;;;4990424;28;20214;-74
2023/09/11 13:57:35;;;;;;;4.80;4.40;;;;;;;;;;5007431;28;20211;-75
2023/09/11 14:00:05;;;;;;;5.20;4.43;;;;;;;;;;5008176;28;20291;-74
2023/09/11 14:02:32;;;;;;;6.90;5.00;;;;;;;;;;4990313;28;20700;-75
2023/09/11 14:05:00;;;;;;;6.07;4.40;;;;;;;;;;5008187;28;20238;-75
2023/09/11 14:07:28;;;;;;;6.38;4.32;;;;;;;;;;5012410;28;20345;-75
2023/09/11 14:09:55;;;;;;;8.55;4.00;;;;;;;;;;5000517;28;20295;-75
2023/09/11 14:12:22;;;;;;;7.80;5.50;;;;;;;;;;5008051;28;20230;-75
2023/09/11 14:14:50;;;;;;;7.72;5.32;;;;;;;;;;5008002;28;20207;-75
2023/09/11 14:17:17;;;;;;;6.53;5.18;;;;;;;;;;5022650;28;20241;-75
2023/09/11 14:19:44;;;;;;;7.28;4.70;;;;;;;;;;4997005;28;20657;-74
2023/09/11 14:22:11;;;;;;;8.55;5.35;;;;;;;;;;5014164;28;20285;-74
2023/09/11 14:24:40;;;;;;;6.55;4.30;;;;;;;;;;5007737;28;20227;-76
2023/09/11 14:27:10;;;;;;;5.45;4.18;;;;;;;;;;4990015;28;20199;-75
2023/09/11 14:29:37;;;;;;;9.70;4.30;;;;;;;;;;5000549;28;20285;-76
2023/09/11 14:32:07;;;;;;;7.28;4.18;;;;;;;;;;5002142;28;20219;-76
2023/09/11 14:34:35;;;;;;;5.60;4.43;;;;;;;;;;4994277;28;20218;-75
2023/09/11 14:37:02;;;;;;;6.63;4.75;;;;;;;;;;5006675;28;20210;-75